createdAt,value
2023-05-22T00:00:26.880Z,45.29
2023-05-22T00:01:31.072Z,45.24
2023-05-22T00:02:35.173Z,45.53
2023-05-22T00:03:38.172Z,45.16
2023-05-22T00:04:43.939Z,45.34
2023-05-22T00:05:46.427Z,45.04
2023-05-22T00:06:49.356Z,44.96
2023-05-22T00:07:52.102Z,44.72
2023-05-22T00:08:59.148Z,44.95
2023-05-22T00:11:18.811Z,45.29
2023-05-22T00:12:21.579Z,45.67
2023-05-22T00:13:24.072Z,45.46
2023-05-22T00:14:28.421Z,45.07
2023-05-22T00:15:34.541Z,45.47
2023-05-22T00:16:37.702Z,45.78
2023-05-22T00:17:44.675Z,46.11
2023-05-22T00:18:51.815Z,46.25
2023-05-22T00:19:54.536Z,46.26
2023-05-22T00:20:57.471Z,46.14
2023-05-22T00:23:25.878Z,45.99
2023-05-22T00:24:28.230Z,46.09
2023-05-22T00:25:32.094Z,46.09
2023-05-22T00:27:53.966Z,45.74
2023-05-22T00:28:59.508Z,45.55
2023-05-22T00:30:07.164Z,45.82
2023-05-22T00:31:09.962Z,46.21
2023-05-22T00:32:12.562Z,45.53
2023-05-22T00:33:18.584Z,45.53
2023-05-22T00:34:42.761Z,45.61
2023-05-22T00:35:45.282Z,45.31
2023-05-22T00:36:49.180Z,45.57
2023-05-22T00:37:51.610Z,45.77
2023-05-22T00:38:55.797Z,45.32
2023-05-22T00:40:00.164Z,45.71
2023-05-22T00:41:13.854Z,45.68
2023-05-22T00:42:17.631Z,45.68
2023-05-22T00:43:20.579Z,45.69
2023-05-22T00:44:23.911Z,45.92
2023-05-22T00:45:30.947Z,45.54
2023-05-22T00:46:33.467Z,45.70
2023-05-22T00:47:36.156Z,46.00
2023-05-22T00:48:38.331Z,46.13
2023-05-22T00:49:41.317Z,46.28
2023-05-22T00:50:47.650Z,46.54
2023-05-22T00:51:58.639Z,46.43
2023-05-22T00:53:01.024Z,46.75
2023-05-22T00:54:04.664Z,47.27
2023-05-22T00:55:09.997Z,46.95
2023-05-22T00:56:18.719Z,46.81
2023-05-22T00:57:20.947Z,46.03
2023-05-22T00:58:25.471Z,45.52
2023-05-22T00:59:37.965Z,45.86
2023-05-22T01:00:40.684Z,46.89
2023-05-22T01:01:43.608Z,46.55
2023-05-22T01:04:05.397Z,46.42
2023-05-22T01:05:08.228Z,46.51
2023-05-22T01:06:14.637Z,46.58
2023-05-22T01:07:17.811Z,46.62
2023-05-22T01:08:21.671Z,46.20
2023-05-22T01:09:26.879Z,45.59
2023-05-22T01:10:31.236Z,46.13
2023-05-22T01:13:08.584Z,45.85
2023-05-22T01:14:16.983Z,46.13
2023-05-22T01:17:09.636Z,45.99
2023-05-22T01:18:34.409Z,45.66
2023-05-22T01:19:49.107Z,45.96
2023-05-22T01:21:18.889Z,45.51
2023-05-22T01:22:39.827Z,45.82
2023-05-22T01:24:02.327Z,45.76
2023-05-22T01:27:18.755Z,46.01
2023-05-22T01:30:22.348Z,45.96
2023-05-22T01:31:28.169Z,46.52
2023-05-22T01:32:33.425Z,46.38
2023-05-22T01:35:00.363Z,45.95
2023-05-22T01:36:04.158Z,46.21
2023-05-22T01:37:06.957Z,46.58
2023-05-22T01:38:10.797Z,46.48
2023-05-22T01:39:16.545Z,46.57
2023-05-22T01:40:20.743Z,46.39
2023-05-22T01:41:23.424Z,46.50
2023-05-22T01:42:27.290Z,46.58
2023-05-22T01:43:31.812Z,46.58
2023-05-22T01:44:38.918Z,46.35
2023-05-22T01:45:41.396Z,46.31
2023-05-22T01:46:48.063Z,46.13
2023-05-22T01:47:50.453Z,46.15
2023-05-22T01:48:53.303Z,46.49
2023-05-22T01:49:56.886Z,46.32
2023-05-22T01:51:04.683Z,46.52
2023-05-22T01:52:19.279Z,46.65
2023-05-22T01:53:28.131Z,46.81
2023-05-22T01:54:49.153Z,46.23
2023-05-22T01:55:55.092Z,46.05
2023-05-22T01:57:07.453Z,46.09
2023-05-22T01:58:14.002Z,46.15
2023-05-22T01:59:23.496Z,46.46
2023-05-22T02:01:37.909Z,46.13
2023-05-22T02:02:43.640Z,46.30
2023-05-22T02:03:48.056Z,46.36
2023-05-22T02:04:57.176Z,46.44
2023-05-22T02:06:02.915Z,46.83
2023-05-22T02:07:06.692Z,46.76
2023-05-22T02:08:10.816Z,47.11
2023-05-22T02:09:16.043Z,47.01
2023-05-22T02:10:20.397Z,46.87
2023-05-22T02:11:24.480Z,46.80
2023-05-22T02:12:28.269Z,47.02
2023-05-22T02:13:31.094Z,46.55
2023-05-22T02:14:35.014Z,46.83
2023-05-22T02:15:37.402Z,47.08
2023-05-22T02:16:39.877Z,46.97
2023-05-22T02:17:42.684Z,46.77
2023-05-22T02:18:45.050Z,46.89
2023-05-22T02:19:55.139Z,46.77
2023-05-22T02:20:58.517Z,46.55
2023-05-22T02:22:20.583Z,46.36
2023-05-22T02:23:23.644Z,46.41
2023-05-22T02:24:26.017Z,46.66
2023-05-22T02:25:29.363Z,46.41
2023-05-22T02:26:32.394Z,46.29
2023-05-22T02:27:35.334Z,46.49
2023-05-22T02:28:37.636Z,47.00
2023-05-22T02:29:41.836Z,47.24
2023-05-22T02:30:45.270Z,49.11
2023-05-22T02:33:04.079Z,50.38
2023-05-22T02:34:07.183Z,49.43
2023-05-22T02:35:09.565Z,48.50
2023-05-22T02:36:12.496Z,47.94
2023-05-22T02:37:14.707Z,47.73
2023-05-22T02:38:16.936Z,47.22
2023-05-22T02:39:20.341Z,47.21
2023-05-22T02:40:23.662Z,47.20
2023-05-22T02:41:26.023Z,46.89
2023-05-22T02:42:28.452Z,47.09
2023-05-22T02:43:30.830Z,47.32
2023-05-22T02:44:33.235Z,47.48
2023-05-22T02:45:35.557Z,47.33
2023-05-22T02:46:38.173Z,46.99
2023-05-22T02:47:40.666Z,46.78
2023-05-22T02:48:43.077Z,46.59
2023-05-22T02:49:45.545Z,46.94
2023-05-22T02:50:47.883Z,47.01
2023-05-22T02:51:50.895Z,47.00
2023-05-22T02:52:53.829Z,46.99
2023-05-22T02:53:56.788Z,47.09
2023-05-22T02:54:59.174Z,47.31
2023-05-22T02:56:02.012Z,47.20
2023-05-22T02:57:04.851Z,47.08
2023-05-22T02:59:23.073Z,46.90
2023-05-22T03:00:25.628Z,47.01
2023-05-22T03:01:29.864Z,47.25
2023-05-22T03:02:32.587Z,46.94
2023-05-22T03:03:35.787Z,47.04
2023-05-22T03:04:38.595Z,46.99
2023-05-22T03:05:41.053Z,46.97
2023-05-22T03:06:44.163Z,47.15
2023-05-22T03:07:48.655Z,46.99
2023-05-22T03:08:50.947Z,47.33
2023-05-22T03:09:53.289Z,47.37
2023-05-22T03:10:58.336Z,47.67
2023-05-22T03:12:00.819Z,47.71
2023-05-22T03:13:03.190Z,47.13
2023-05-22T03:14:05.600Z,47.31
2023-05-22T03:15:09.463Z,47.29
2023-05-22T03:16:13.978Z,48.94
2023-05-22T03:17:18.076Z,48.26
2023-05-22T03:18:20.514Z,47.51
2023-05-22T03:19:23.410Z,46.99
2023-05-22T03:20:25.801Z,46.28
2023-05-22T03:21:28.120Z,46.15
2023-05-22T03:22:30.866Z,46.15
2023-05-22T03:23:33.383Z,46.11
2023-05-22T03:24:35.909Z,45.43
2023-05-22T03:25:38.992Z,45.69
2023-05-22T03:26:43.251Z,46.04
2023-05-22T03:27:48.039Z,46.13
2023-05-22T03:28:50.262Z,45.67
2023-05-22T03:29:52.750Z,46.00
2023-05-22T03:30:56.062Z,45.97
2023-05-22T03:32:00.372Z,46.19
2023-05-22T03:33:02.786Z,45.94
2023-05-22T03:34:05.332Z,46.18
2023-05-22T03:35:09.496Z,46.06
2023-05-22T03:36:12.680Z,46.18
2023-05-22T03:37:15.756Z,46.31
2023-05-22T03:38:18.306Z,46.40
2023-05-22T03:39:20.710Z,46.21
2023-05-22T03:40:25.462Z,46.41
2023-05-22T03:41:27.909Z,46.29
2023-05-22T03:42:30.356Z,46.29
2023-05-22T03:43:34.022Z,46.30
2023-05-22T03:44:36.518Z,46.06
2023-05-22T03:45:39.070Z,46.23
2023-05-22T03:46:41.660Z,46.40
2023-05-22T03:47:45.429Z,46.04
2023-05-22T03:48:48.155Z,46.26
2023-05-22T03:49:51.175Z,46.38
2023-05-22T03:50:53.815Z,46.16
2023-05-22T03:51:56.915Z,46.26
2023-05-22T03:52:59.463Z,46.13
2023-05-22T03:54:01.928Z,46.40
2023-05-22T03:55:06.056Z,46.81
2023-05-22T03:57:18.180Z,46.86
2023-05-22T03:58:20.649Z,46.99
2023-05-22T03:59:23.198Z,46.97
2023-05-22T04:00:26.947Z,46.74
2023-05-22T04:01:29.665Z,46.61
2023-05-22T04:02:32.289Z,46.25
2023-05-22T04:03:36.366Z,45.43
2023-05-22T04:04:39.014Z,45.24
2023-05-22T04:05:42.491Z,45.40
2023-05-22T04:06:45.927Z,44.50
2023-05-22T04:07:48.832Z,44.24
2023-05-22T04:08:51.344Z,44.72
2023-05-22T04:09:53.713Z,43.84
2023-05-22T04:10:56.608Z,43.97
2023-05-22T04:11:59.038Z,43.58
2023-05-22T04:13:01.971Z,44.08
2023-05-22T04:14:04.422Z,44.23
2023-05-22T04:16:23.150Z,43.25
2023-05-22T04:18:43.196Z,43.25
2023-05-22T04:19:47.484Z,42.36
2023-05-22T04:20:50.187Z,42.46
2023-05-22T04:21:54.203Z,42.30
2023-05-22T04:24:14.241Z,41.35
2023-05-22T04:25:17.171Z,41.52
2023-05-22T04:27:35.743Z,41.76
2023-05-22T04:28:38.261Z,41.77
2023-05-22T04:29:41.654Z,42.33
2023-05-22T04:30:44.361Z,42.45
2023-05-22T04:31:47.772Z,42.05
2023-05-22T04:32:50.330Z,41.77
2023-05-22T04:33:52.801Z,41.66
2023-05-22T04:34:55.533Z,41.93
2023-05-22T04:35:58.018Z,42.15
2023-05-22T04:37:03.751Z,42.60
2023-05-22T04:38:06.637Z,42.21
2023-05-22T04:39:09.163Z,42.28
2023-05-22T04:40:13.960Z,42.53
2023-05-22T04:41:16.429Z,42.84
2023-05-22T04:42:19.993Z,42.53
2023-05-22T04:43:22.436Z,42.69
2023-05-22T04:44:24.809Z,42.70
2023-05-22T04:45:27.712Z,43.10
2023-05-22T04:46:32.375Z,42.57
2023-05-22T04:47:34.809Z,43.16
2023-05-22T04:48:39.209Z,43.28
2023-05-22T04:49:41.636Z,43.59
2023-05-22T04:50:44.129Z,43.28
2023-05-22T04:51:49.357Z,43.25
2023-05-22T04:52:51.941Z,42.58
2023-05-22T04:53:57.173Z,42.92
2023-05-22T04:55:01.113Z,43.29
2023-05-22T04:57:22.935Z,43.59
2023-05-22T04:58:26.900Z,43.53
2023-05-22T04:59:29.719Z,43.54
2023-05-22T05:00:39.267Z,43.61
2023-05-22T05:01:42.658Z,43.69
2023-05-22T05:02:48.272Z,43.55
2023-05-22T05:03:50.822Z,43.79
2023-05-22T05:04:53.267Z,43.85
2023-05-22T05:07:05.113Z,44.01
2023-05-22T05:08:11.441Z,43.90
2023-05-22T05:09:14.617Z,43.89
2023-05-22T05:10:17.264Z,44.04
2023-05-22T05:11:19.717Z,44.03
2023-05-22T05:12:22.712Z,43.90
2023-05-22T05:13:26.349Z,44.29
2023-05-22T05:14:29.208Z,44.31
2023-05-22T05:15:33.585Z,44.26
2023-05-22T05:16:38.110Z,43.70
2023-05-22T05:17:42.582Z,42.57
2023-05-22T05:18:45.127Z,41.87
2023-05-22T05:19:47.500Z,41.72
2023-05-22T05:20:49.986Z,42.19
2023-05-22T05:21:53.413Z,41.63
2023-05-22T05:22:59.717Z,41.56
2023-05-22T05:24:02.467Z,41.05
2023-05-22T05:25:05.646Z,40.64
2023-05-22T05:27:25.377Z,38.86
2023-05-22T05:28:29.208Z,38.33
2023-05-22T05:29:31.846Z,37.82
2023-05-22T05:30:40.235Z,37.84
2023-05-22T05:31:53.999Z,37.88
2023-05-22T05:32:58.449Z,37.02
2023-05-22T05:34:08.993Z,37.24
2023-05-22T05:35:25.136Z,36.16
2023-05-22T05:36:29.578Z,36.03
2023-05-22T05:37:32.119Z,36.02
2023-05-22T05:38:36.326Z,35.37
2023-05-22T05:39:40.650Z,34.57
2023-05-22T05:41:54.265Z,35.41
2023-05-22T05:42:57.294Z,35.07
2023-05-22T05:44:01.645Z,35.16
2023-05-22T05:45:06.673Z,36.11
2023-05-22T05:46:10.617Z,35.64
2023-05-22T05:47:13.313Z,35.74
2023-05-22T05:48:16.784Z,35.78
2023-05-22T05:49:22.159Z,35.56
2023-05-22T05:50:25.167Z,34.99
2023-05-22T05:51:29.853Z,34.69
2023-05-22T05:52:33.433Z,35.35
2023-05-22T05:53:37.764Z,34.44
2023-05-22T05:54:40.839Z,34.46
2023-05-22T05:55:48.426Z,34.37
2023-05-22T05:56:51.387Z,34.26
2023-05-22T05:57:55.077Z,33.91
2023-05-22T05:58:59.495Z,33.19
2023-05-22T06:00:11.268Z,33.42
2023-05-22T06:01:16.617Z,33.65
2023-05-22T06:02:19.656Z,32.70
2023-05-22T06:03:22.488Z,32.43
2023-05-22T06:04:30.906Z,32.30
2023-05-22T06:05:33.593Z,32.56
2023-05-22T06:07:53.130Z,31.79
2023-05-22T06:08:55.802Z,31.56
2023-05-22T06:10:00.077Z,31.55
2023-05-22T06:11:04.479Z,31.08
2023-05-22T06:12:08.900Z,30.83
2023-05-22T06:13:11.247Z,29.92
2023-05-22T06:14:13.954Z,29.55
2023-05-22T06:15:16.598Z,29.99
2023-05-22T06:16:19.117Z,30.12
2023-05-22T06:17:22.802Z,30.01
2023-05-22T06:18:25.396Z,30.29
2023-05-22T06:19:28.182Z,30.67
2023-05-22T06:20:34.041Z,30.53
2023-05-22T06:21:37.067Z,30.90
2023-05-22T06:22:40.222Z,31.36
2023-05-22T06:23:43.501Z,31.56
2023-05-22T06:24:46.736Z,32.29
2023-05-22T06:25:51.022Z,31.94
2023-05-22T06:26:55.501Z,32.01
2023-05-22T06:27:57.957Z,32.80
2023-05-22T06:29:00.420Z,32.55
2023-05-22T06:30:04.881Z,32.89
2023-05-22T06:31:09.651Z,32.98
2023-05-22T06:32:14.691Z,33.35
2023-05-22T06:33:18.135Z,33.88
2023-05-22T06:34:21.357Z,33.96
2023-05-22T06:35:24.256Z,34.38
2023-05-22T06:36:27.194Z,34.96
2023-05-22T06:37:31.242Z,34.47
2023-05-22T06:38:34.872Z,34.67
2023-05-22T06:39:38.700Z,35.21
2023-05-22T06:40:45.578Z,35.26
2023-05-22T06:41:56.364Z,35.49
2023-05-22T06:43:01.569Z,35.67
2023-05-22T06:45:20.790Z,36.01
2023-05-22T06:46:27.955Z,36.22
2023-05-22T06:47:33.075Z,35.78
2023-05-22T06:48:35.701Z,36.20
2023-05-22T06:49:40.428Z,36.09
2023-05-22T06:50:43.363Z,36.45
2023-05-22T06:51:46.037Z,36.69
2023-05-22T06:52:51.257Z,36.52
2023-05-22T06:53:53.800Z,36.27
2023-05-22T06:55:02.197Z,36.63
2023-05-22T06:56:05.626Z,37.03
2023-05-22T06:57:10.544Z,37.09
2023-05-22T06:58:13.835Z,36.95
2023-05-22T06:59:18.623Z,37.09
2023-05-22T07:00:39.524Z,37.22
2023-05-22T07:01:44.211Z,36.82
2023-05-22T07:02:48.404Z,37.16
2023-05-22T07:03:59.612Z,38.14
2023-05-22T07:05:08.366Z,37.30
2023-05-22T07:06:20.086Z,37.36
2023-05-22T07:07:23.709Z,37.53
2023-05-22T07:08:30.410Z,37.08
2023-05-22T07:09:32.629Z,36.08
2023-05-22T07:10:35.705Z,35.88
2023-05-22T07:11:38.299Z,35.07
2023-05-22T07:12:41.305Z,35.18
2023-05-22T07:13:43.830Z,35.45
2023-05-22T07:14:46.319Z,35.36
2023-05-22T07:15:49.070Z,34.93
2023-05-22T07:16:53.964Z,34.96
2023-05-22T07:17:58.413Z,35.92
2023-05-22T07:19:01.278Z,34.98
2023-05-22T07:20:04.664Z,34.67
2023-05-22T07:21:08.291Z,34.71
2023-05-22T07:22:11.321Z,34.91
2023-05-22T07:24:26.368Z,36.17
2023-05-22T07:27:57.651Z,34.85
2023-05-22T07:29:01.525Z,34.85
2023-05-22T07:30:06.796Z,34.42
2023-05-22T07:31:10.523Z,33.93
2023-05-22T07:32:13.009Z,35.15
2023-05-22T07:33:17.363Z,34.16
2023-05-22T07:34:20.978Z,34.27
2023-05-22T07:35:24.924Z,34.29
2023-05-22T07:36:28.481Z,34.25
2023-05-22T07:37:31.002Z,34.70
2023-05-22T07:38:35.091Z,34.99
2023-05-22T07:39:38.189Z,33.83
2023-05-22T07:40:41.096Z,34.37
2023-05-22T07:41:47.582Z,33.15
2023-05-22T07:42:50.167Z,33.22
2023-05-22T07:43:52.629Z,32.93
2023-05-22T07:44:57.220Z,33.33
2023-05-22T07:46:03.097Z,33.61
2023-05-22T07:47:07.678Z,33.32
2023-05-22T07:48:14.134Z,32.88
2023-05-22T07:49:17.287Z,33.23
2023-05-22T07:50:19.995Z,32.62
2023-05-22T07:51:22.443Z,32.54
2023-05-22T07:52:29.302Z,32.17
2023-05-22T07:53:31.882Z,32.37
2023-05-22T07:54:35.469Z,32.56
2023-05-22T07:55:38.051Z,32.59
2023-05-22T07:56:41.554Z,33.55
2023-05-22T07:57:46.060Z,34.04
2023-05-22T07:58:50.419Z,32.71
2023-05-22T07:59:55.005Z,32.97
2023-05-22T08:00:57.566Z,33.76
2023-05-22T08:02:01.433Z,32.29
2023-05-22T08:03:04.179Z,32.53
2023-05-22T08:04:08.892Z,31.78
2023-05-22T08:05:14.835Z,32.03
2023-05-22T08:06:21.534Z,31.52
2023-05-22T08:07:24.129Z,32.80
2023-05-22T08:08:28.839Z,30.94
2023-05-22T08:09:37.839Z,31.77
2023-05-22T08:10:47.061Z,31.63
2023-05-22T08:11:41.102Z,30.74
2023-05-22T08:12:44.021Z,31.82
2023-05-22T08:13:46.828Z,33.67
2023-05-22T08:14:49.484Z,32.45
2023-05-22T08:15:51.972Z,32.23
2023-05-22T08:16:56.465Z,33.28
2023-05-22T08:17:59.076Z,31.46
2023-05-22T08:19:08.519Z,31.06
2023-05-22T08:20:12.381Z,31.31
2023-05-22T08:21:16.072Z,30.90
2023-05-22T08:22:18.662Z,31.72
2023-05-22T08:23:24.002Z,32.72
2023-05-22T08:25:44.476Z,30.37
2023-05-22T08:26:47.089Z,32.05
2023-05-22T08:27:49.581Z,32.11
2023-05-22T08:28:52.514Z,30.55
2023-05-22T08:29:58.092Z,30.08
2023-05-22T08:31:01.366Z,31.52
2023-05-22T08:32:04.453Z,31.22
2023-05-22T08:33:08.957Z,31.12
2023-05-22T08:34:12.308Z,31.45
2023-05-22T08:35:14.893Z,32.13
2023-05-22T08:36:17.881Z,32.50
2023-05-22T08:37:20.872Z,31.29
2023-05-22T08:38:23.309Z,31.14
2023-05-22T08:39:26.266Z,30.42
2023-05-22T08:40:36.979Z,29.85
2023-05-22T08:41:39.779Z,30.76
2023-05-22T08:44:05.867Z,30.32
2023-05-22T08:45:12.413Z,29.49
2023-05-22T08:46:16.842Z,29.04
2023-05-22T08:49:57.201Z,28.87
2023-05-22T08:51:05.109Z,28.23
2023-05-22T08:52:14.318Z,29.09
2023-05-22T08:53:18.516Z,29.02
2023-05-22T08:54:22.742Z,29.51
2023-05-22T08:55:25.868Z,29.13
2023-05-22T08:56:30.256Z,30.35
2023-05-22T08:57:32.794Z,29.63
2023-05-22T08:58:37.565Z,30.34
2023-05-22T08:59:40.610Z,29.59
2023-05-22T09:00:45.545Z,30.07
2023-05-22T09:01:48.082Z,29.37
2023-05-22T09:02:53.167Z,30.00
2023-05-22T09:04:01.910Z,30.09
2023-05-22T09:06:32.366Z,29.96
2023-05-22T09:07:38.003Z,29.95
2023-05-22T09:08:42.943Z,29.74
2023-05-22T09:09:46.746Z,30.69
2023-05-22T09:10:57.757Z,30.78
2023-05-22T09:12:00.479Z,29.80
2023-05-22T09:13:08.665Z,29.61
2023-05-22T09:14:14.261Z,30.35
2023-05-22T09:15:16.740Z,29.16
2023-05-22T09:16:21.243Z,29.75
2023-05-22T09:17:26.224Z,29.24
2023-05-22T09:18:28.861Z,28.65
2023-05-22T09:19:31.793Z,28.35
2023-05-22T09:20:35.696Z,28.83
2023-05-22T09:23:16.207Z,29.65
2023-05-22T09:24:18.935Z,29.32
2023-05-22T09:25:21.481Z,29.47
2023-05-22T09:26:28.775Z,29.45
2023-05-22T09:27:36.745Z,28.78
2023-05-22T09:28:39.347Z,29.31
2023-05-22T09:29:52.516Z,29.64
2023-05-22T09:30:55.750Z,30.23
2023-05-22T09:31:59.596Z,29.37
2023-05-22T09:33:03.915Z,29.36
2023-05-22T09:35:39.572Z,30.45
2023-05-22T09:36:42.232Z,29.87
2023-05-22T09:37:47.101Z,29.61
2023-05-22T09:40:13.687Z,29.45
2023-05-22T09:43:37.106Z,29.87
2023-05-22T09:44:39.787Z,30.47
2023-05-22T09:45:42.332Z,31.07
2023-05-22T09:46:45.970Z,30.98
2023-05-22T09:47:50.824Z,30.02
2023-05-22T09:48:54.309Z,29.98
2023-05-22T09:49:57.850Z,30.00
2023-05-22T09:51:02.001Z,29.96
2023-05-22T09:52:09.079Z,30.01
2023-05-22T09:53:11.629Z,30.06
2023-05-22T09:54:16.511Z,30.01
2023-05-22T09:55:20.409Z,30.28
2023-05-22T09:56:37.902Z,30.72
2023-05-22T09:57:35.688Z,31.64
2023-05-22T09:58:42.416Z,30.89
2023-05-22T09:59:52.180Z,30.71
2023-05-22T10:01:02.930Z,31.27
2023-05-22T10:02:11.869Z,30.89
2023-05-22T10:03:20.673Z,30.46
2023-05-22T10:05:44.301Z,30.14
2023-05-22T10:09:29.089Z,30.43
2023-05-22T10:10:39.504Z,30.66
2023-05-22T10:11:45.371Z,30.67
2023-05-22T10:12:58.594Z,30.52
2023-05-22T10:17:06.331Z,30.95
2023-05-22T10:18:13.959Z,31.01
2023-05-22T10:19:19.079Z,30.71
2023-05-22T10:20:27.618Z,31.17
2023-05-22T10:21:34.964Z,31.53
2023-05-22T10:22:49.066Z,31.17
2023-05-22T10:24:01.901Z,30.90
2023-05-22T10:25:29.975Z,30.55
2023-05-22T10:26:32.699Z,31.58
2023-05-22T10:27:36.954Z,31.28
2023-05-22T10:29:02.892Z,30.48
2023-05-22T10:31:56.762Z,30.78
2023-05-22T10:33:10.434Z,31.67
2023-05-22T10:34:34.196Z,30.42
2023-05-22T10:36:05.087Z,29.67
2023-05-22T10:37:34.202Z,30.28
2023-05-22T10:38:59.285Z,30.90
2023-05-22T10:40:14.599Z,30.15
2023-05-22T10:41:17.639Z,30.89
2023-05-22T10:42:22.361Z,30.79
2023-05-22T10:43:28.574Z,31.09
2023-05-22T10:44:41.445Z,30.41
2023-05-22T10:45:54.076Z,29.72
2023-05-22T10:48:22.341Z,29.86
2023-05-22T10:49:27.220Z,29.67
2023-05-22T10:51:47.648Z,30.07
2023-05-22T10:52:58.140Z,29.82
2023-05-22T10:54:06.364Z,29.84
2023-05-22T10:55:12.177Z,30.03
2023-05-22T10:56:22.911Z,30.53
2023-05-22T10:57:31.726Z,30.33
2023-05-22T11:00:12.371Z,31.14
2023-05-22T11:01:19.443Z,31.63
2023-05-22T11:02:26.861Z,31.12
2023-05-22T11:03:33.976Z,30.25
2023-05-22T11:04:40.679Z,31.22
2023-05-22T11:07:11.373Z,31.04
2023-05-22T11:08:29.875Z,30.65
2023-05-22T11:09:44.911Z,31.36
2023-05-22T11:12:28.758Z,29.92
2023-05-22T11:13:34.232Z,30.13
2023-05-22T11:14:39.283Z,29.84
2023-05-22T11:15:48.152Z,30.71
2023-05-22T11:16:55.717Z,30.17
2023-05-22T11:18:01.845Z,29.92
2023-05-22T11:19:21.839Z,30.62
2023-05-22T11:20:26.383Z,31.00
2023-05-22T11:24:16.362Z,30.82
2023-05-22T11:25:21.084Z,30.69
2023-05-22T11:26:27.048Z,30.13
2023-05-22T11:27:35.129Z,30.01
2023-05-22T11:30:02.260Z,29.32
2023-05-22T11:31:08.145Z,29.76
2023-05-22T11:32:12.120Z,29.74
2023-05-22T11:33:15.449Z,29.98
2023-05-22T11:34:21.299Z,29.91
2023-05-22T11:35:29.952Z,30.16
2023-05-22T11:36:39.449Z,30.09
2023-05-22T11:38:59.931Z,29.57
2023-05-22T11:41:16.208Z,29.51
2023-05-22T11:42:19.366Z,29.80
2023-05-22T11:43:31.687Z,30.00
2023-05-22T11:44:34.788Z,29.54
2023-05-22T11:45:38.991Z,29.30
2023-05-22T11:46:42.408Z,29.25
2023-05-22T11:49:02.468Z,29.37
2023-05-22T11:50:09.371Z,29.50
2023-05-22T11:51:12.506Z,29.34
2023-05-22T11:53:26.663Z,29.54
2023-05-22T11:54:32.283Z,29.65
2023-05-22T11:55:34.838Z,30.01
2023-05-22T11:56:38.089Z,29.40
2023-05-22T11:57:41.367Z,29.69
2023-05-22T11:58:43.671Z,29.97
2023-05-22T11:59:48.888Z,30.06
2023-05-22T12:00:51.612Z,30.21
2023-05-22T12:01:56.507Z,29.43
2023-05-22T12:02:58.976Z,29.51
2023-05-22T12:04:02.424Z,29.26
2023-05-22T12:05:06.019Z,28.89
2023-05-22T12:06:11.255Z,29.39
2023-05-22T12:07:15.434Z,29.36
2023-05-22T12:08:19.408Z,30.61
2023-05-22T12:09:22.000Z,30.37
2023-05-22T12:10:26.047Z,29.15
2023-05-22T12:11:33.236Z,28.52
2023-05-22T12:12:38.052Z,28.88
2023-05-22T12:13:41.797Z,28.96
2023-05-22T12:14:45.218Z,28.79
2023-05-22T12:15:47.694Z,28.63
2023-05-22T12:16:51.891Z,29.14
2023-05-22T12:17:54.842Z,29.02
2023-05-22T12:18:57.430Z,28.49
2023-05-22T12:20:00.327Z,28.35
2023-05-22T12:21:07.551Z,28.34
2023-05-22T12:22:11.856Z,28.09
2023-05-22T12:23:28.174Z,28.21
2023-05-22T12:24:41.458Z,28.60
2023-05-22T12:25:43.924Z,29.25
2023-05-22T12:26:50.707Z,29.60
2023-05-22T12:27:53.742Z,28.92
2023-05-22T12:30:10.937Z,28.49
2023-05-22T12:31:22.998Z,28.48
2023-05-22T12:32:29.385Z,28.70
2023-05-22T12:33:31.948Z,29.14
2023-05-22T12:34:35.733Z,28.45
2023-05-22T12:35:40.234Z,28.40
2023-05-22T12:36:45.292Z,28.83
2023-05-22T12:37:51.016Z,28.69
2023-05-22T12:38:57.385Z,28.68
2023-05-22T12:40:03.961Z,28.33
2023-05-22T12:41:10.767Z,28.43
2023-05-22T12:42:14.234Z,28.54
2023-05-22T12:43:20.403Z,28.58
2023-05-22T12:44:23.395Z,28.59
2023-05-22T12:45:26.822Z,28.27
2023-05-22T12:46:33.034Z,28.31
2023-05-22T12:47:35.372Z,28.31
2023-05-22T12:48:37.981Z,28.77
2023-05-22T12:49:40.807Z,29.43
2023-05-22T12:50:44.862Z,29.74
2023-05-22T12:51:48.417Z,30.20
2023-05-22T12:58:27.576Z,28.56
2023-05-22T13:00:46.747Z,29.06
2023-05-22T13:01:49.163Z,28.68
2023-05-22T13:02:53.055Z,28.42
2023-05-22T13:03:55.420Z,28.51
2023-05-22T13:04:57.586Z,29.12
2023-05-22T13:05:59.949Z,28.43
2023-05-22T13:07:02.535Z,28.34
2023-05-22T13:08:04.756Z,28.80
2023-05-22T13:09:06.996Z,29.00
2023-05-22T13:10:11.568Z,29.25
2023-05-22T13:11:14.115Z,28.35
2023-05-22T13:12:18.339Z,28.10
2023-05-22T13:13:20.560Z,28.08
2023-05-22T13:14:24.006Z,28.61
2023-05-22T13:15:26.392Z,28.58
2023-05-22T13:16:30.536Z,28.19
2023-05-22T13:17:32.987Z,28.78
2023-05-22T13:18:35.344Z,28.51
2023-05-22T13:19:39.465Z,28.14
2023-05-22T13:20:43.509Z,27.96
2023-05-22T13:21:47.074Z,27.75
2023-05-22T13:22:49.278Z,28.79
2023-05-22T13:23:52.327Z,28.75
2023-05-22T13:24:55.309Z,28.68
2023-05-22T13:25:58.722Z,28.38
2023-05-22T13:27:01.054Z,28.51
2023-05-22T13:28:03.311Z,28.33
2023-05-22T13:29:05.401Z,28.04
2023-05-22T13:30:12.425Z,28.48
2023-05-22T13:31:15.777Z,28.96
2023-05-22T13:32:18.910Z,28.66
2023-05-22T13:33:21.561Z,27.92
2023-05-22T13:34:23.959Z,27.63
2023-05-22T13:35:26.686Z,28.00
2023-05-22T13:36:29.079Z,27.61
2023-05-22T13:37:31.365Z,27.75
2023-05-22T13:38:33.647Z,28.46
2023-05-22T13:39:36.079Z,27.45
2023-05-22T13:40:39.054Z,27.48
2023-05-22T13:41:41.756Z,27.45
2023-05-22T13:42:45.540Z,27.62
2023-05-22T13:43:48.057Z,27.21
2023-05-22T13:44:50.875Z,27.33
2023-05-22T13:45:53.843Z,27.17
2023-05-22T13:46:56.452Z,27.02
2023-05-22T13:48:00.070Z,27.21
2023-05-22T13:49:02.415Z,27.94
2023-05-22T13:50:05.732Z,28.26
2023-05-22T13:51:08.625Z,28.26
2023-05-22T13:52:10.957Z,28.48
2023-05-22T13:53:13.262Z,28.84
2023-05-22T13:54:15.983Z,28.88
2023-05-22T13:55:18.266Z,29.60
2023-05-22T13:56:22.884Z,29.29
2023-05-22T13:57:26.364Z,28.25
2023-05-22T13:58:28.728Z,29.08
2023-05-22T13:59:30.834Z,27.71
2023-05-22T14:00:33.270Z,28.50
2023-05-22T14:01:35.613Z,28.62
2023-05-22T14:02:39.064Z,27.89
2023-05-22T14:03:41.672Z,27.56
2023-05-22T14:04:44.841Z,27.76
2023-05-22T14:05:48.260Z,27.70
2023-05-22T14:06:50.682Z,27.40
2023-05-22T14:07:52.930Z,27.87
2023-05-22T14:08:55.470Z,27.46
2023-05-22T14:10:00.461Z,27.11
2023-05-22T14:11:02.677Z,27.74
2023-05-22T14:12:06.389Z,28.03
2023-05-22T14:13:08.658Z,28.47
2023-05-22T14:14:10.867Z,28.06
2023-05-22T14:15:13.201Z,28.14
2023-05-22T14:16:16.510Z,29.06
2023-05-22T14:17:18.878Z,27.88
2023-05-22T14:18:22.330Z,27.50
2023-05-22T14:19:24.608Z,27.16
2023-05-22T14:20:27.487Z,27.21
2023-05-22T14:21:30.220Z,27.43
2023-05-22T14:22:36.323Z,27.44
2023-05-22T14:23:37.362Z,27.40
2023-05-22T14:24:39.694Z,27.24
2023-05-22T14:25:45.708Z,27.24
2023-05-22T14:26:48.557Z,27.58
2023-05-22T14:27:51.030Z,28.48
2023-05-22T14:28:53.557Z,27.61
2023-05-22T14:29:55.726Z,28.14
2023-05-22T14:30:58.131Z,27.99
2023-05-22T14:33:19.512Z,28.77
2023-05-22T14:34:22.279Z,28.61
2023-05-22T14:35:25.687Z,28.59
2023-05-22T14:36:27.994Z,28.66
2023-05-22T14:37:30.109Z,28.77
2023-05-22T14:38:32.292Z,28.25
2023-05-22T14:39:34.573Z,27.75
2023-05-22T14:40:36.957Z,27.72
2023-05-22T14:41:39.172Z,27.63
2023-05-22T14:42:44.624Z,27.08
2023-05-22T14:43:49.414Z,27.09
2023-05-22T14:44:51.750Z,27.01
2023-05-22T14:45:58.346Z,27.12
2023-05-22T14:47:01.261Z,26.81
2023-05-22T14:48:04.187Z,26.87
2023-05-22T14:49:06.598Z,26.62
2023-05-22T14:50:18.943Z,26.38
2023-05-22T14:51:14.992Z,26.23
2023-05-22T14:52:36.854Z,26.99
2023-05-22T14:53:54.558Z,26.49
2023-05-22T14:54:58.188Z,26.52
2023-05-22T14:56:00.449Z,27.26
2023-05-22T14:57:02.698Z,27.58
2023-05-22T14:58:04.926Z,27.79
2023-05-22T14:59:07.256Z,27.77
2023-05-22T15:00:11.982Z,27.73
2023-05-22T15:01:14.426Z,28.00
2023-05-22T15:02:16.700Z,28.54
2023-05-22T15:04:31.485Z,28.58
2023-05-22T15:05:33.865Z,28.38
2023-05-22T15:06:36.242Z,28.08
2023-05-22T15:08:42.562Z,27.39
2023-05-22T15:09:44.890Z,28.35
2023-05-22T15:10:47.256Z,27.96
2023-05-22T15:11:49.578Z,27.47
2023-05-22T15:17:36.128Z,27.31
2023-05-22T15:18:38.938Z,27.00
2023-05-22T15:19:41.359Z,27.06
2023-05-22T15:20:45.447Z,27.46
2023-05-22T15:21:47.626Z,27.94
2023-05-22T15:22:49.804Z,27.91